createdAt,value
2019-02-26T00:02:02.042Z,62.14
2019-02-26T00:04:34.446Z,62.45
2019-02-26T00:07:07.387Z,62.28
2019-02-26T00:09:39.615Z,62.56
2019-02-26T00:12:11.246Z,62.41
2019-02-26T00:14:43.052Z,62.33
2019-02-26T00:17:17.553Z,62.21
2019-02-26T00:19:49.337Z,61.78
2019-02-26T00:22:21.461Z,61.69
2019-02-26T00:24:53.080Z,61.19
2019-02-26T00:27:26.243Z,60.92
2019-02-26T00:29:58.068Z,61.03
2019-02-26T00:32:30.363Z,61.02
2019-02-26T00:35:06.945Z,61.28
2019-02-26T00:37:38.768Z,61.09
2019-02-26T00:40:14.616Z,61.16
2019-02-26T00:42:50.256Z,61.00
2019-02-26T00:45:24.739Z,60.87
2019-02-26T00:47:53.519Z,60.83
2019-02-26T00:50:25.191Z,61.54
2019-02-26T00:52:58.852Z,61.46
2019-02-26T00:55:32.213Z,61.51
2019-02-26T00:58:05.830Z,61.53
2019-02-26T01:00:37.503Z,61.30
2019-02-26T01:03:11.057Z,61.18
2019-02-26T01:05:43.161Z,61.40
2019-02-26T01:08:17.481Z,61.45
2019-02-26T01:10:49.186Z,61.61
2019-02-26T01:13:22.407Z,61.76
2019-02-26T01:15:54.321Z,61.78
2019-02-26T01:18:26.840Z,62.17
2019-02-26T01:21:00.259Z,61.97
2019-02-26T01:23:32.410Z,63.24
2019-02-26T01:26:04.008Z,63.10
2019-02-26T01:28:35.688Z,63.06
2019-02-26T01:31:07.427Z,63.52
2019-02-26T01:33:39.169Z,64.18
2019-02-26T01:36:10.760Z,64.48
2019-02-26T01:38:44.390Z,64.54
2019-02-26T01:41:17.859Z,65.51
2019-02-26T01:43:49.272Z,65.28
2019-02-26T01:46:20.805Z,66.28
2019-02-26T01:48:53.069Z,66.34
2019-02-26T01:51:26.097Z,66.85
2019-02-26T01:53:58.967Z,67.34
2019-02-26T01:56:30.631Z,67.37
2019-02-26T01:59:02.844Z,67.53
2019-02-26T02:01:34.507Z,67.59
2019-02-26T02:04:08.208Z,67.55
2019-02-26T02:06:41.236Z,67.97
2019-02-26T02:09:13.996Z,67.91
2019-02-26T02:11:45.845Z,67.97
2019-02-26T02:14:17.618Z,68.47
2019-02-26T02:16:49.771Z,68.68
2019-02-26T02:19:23.395Z,68.95
2019-02-26T02:21:58.283Z,69.02
2019-02-26T02:24:29.908Z,69.20
2019-02-26T02:27:01.522Z,69.63
2019-02-26T02:29:33.603Z,69.62
2019-02-26T02:32:07.731Z,69.40
2019-02-26T02:34:40.888Z,69.95
2019-02-26T02:37:14.848Z,70.10
2019-02-26T02:39:46.461Z,70.17
2019-02-26T02:42:19.105Z,70.00
2019-02-26T02:44:52.792Z,70.25
2019-02-26T02:47:25.318Z,70.38
2019-02-26T02:49:58.090Z,70.20
2019-02-26T02:52:30.457Z,70.61
2019-02-26T02:55:04.560Z,70.88
2019-02-26T02:57:36.083Z,70.79
2019-02-26T03:00:12.007Z,71.05
2019-02-26T03:02:46.792Z,71.51
2019-02-26T03:05:17.497Z,71.75
2019-02-26T03:07:51.648Z,71.92
2019-02-26T03:10:26.087Z,71.94
2019-02-26T03:12:57.805Z,71.97
2019-02-26T03:15:30.023Z,72.16
2019-02-26T03:18:04.157Z,72.27
2019-02-26T03:20:40.157Z,72.21
2019-02-26T03:23:15.166Z,72.41
2019-02-26T03:25:44.519Z,72.41
2019-02-26T03:28:39.988Z,72.31
2019-02-26T03:31:12.174Z,72.25
2019-02-26T03:33:44.257Z,72.40
2019-02-26T03:36:16.720Z,72.37
2019-02-26T03:38:51.183Z,72.30
2019-02-26T03:41:26.143Z,72.63
2019-02-26T03:44:00.316Z,72.75
2019-02-26T03:46:30.575Z,72.71
2019-02-26T03:49:02.773Z,72.72
2019-02-26T03:51:39.120Z,72.68
2019-02-26T03:54:08.599Z,72.60
2019-02-26T03:56:40.101Z,72.38
2019-02-26T03:59:11.864Z,72.42
2019-02-26T04:01:43.583Z,72.53
2019-02-26T04:04:15.171Z,72.52
2019-02-26T04:06:47.325Z,72.63
2019-02-26T04:09:19.627Z,72.71
2019-02-26T04:11:53.412Z,72.93
2019-02-26T04:14:26.361Z,73.03
2019-02-26T04:17:01.488Z,73.29
2019-02-26T04:19:32.151Z,73.74
2019-02-26T04:22:31.096Z,73.69
2019-02-26T04:25:16.702Z,73.60
2019-02-26T04:27:57.002Z,73.54
2019-02-26T04:30:59.742Z,73.34
2019-02-26T04:33:38.593Z,73.65
2019-02-26T04:36:29.466Z,73.82
2019-02-26T04:39:42.274Z,73.84
2019-02-26T04:42:43.681Z,73.50
2019-02-26T04:46:07.895Z,73.82
2019-02-26T04:48:51.694Z,73.96
2019-02-26T04:51:23.247Z,73.89
2019-02-26T04:53:56.132Z,73.76
2019-02-26T04:56:31.262Z,73.73
2019-02-26T04:59:03.584Z,73.83
2019-02-26T05:01:34.780Z,73.91
2019-02-26T05:04:06.452Z,73.73
2019-02-26T05:06:38.004Z,73.92
2019-02-26T05:09:10.620Z,73.68
2019-02-26T05:11:42.401Z,73.76
2019-02-26T05:14:15.405Z,73.62
2019-02-26T05:16:47.258Z,73.63
2019-02-26T05:19:21.510Z,73.42
2019-02-26T05:21:53.605Z,73.20
2019-02-26T05:24:26.277Z,72.96
2019-02-26T05:26:58.014Z,72.86
2019-02-26T05:29:29.564Z,72.92
2019-02-26T05:32:04.002Z,72.76
2019-02-26T05:34:37.357Z,72.83
2019-02-26T05:37:11.100Z,72.90
2019-02-26T05:39:43.259Z,73.00
2019-02-26T05:42:15.225Z,73.16
2019-02-26T05:44:46.760Z,73.26
2019-02-26T05:47:21.552Z,73.11
2019-02-26T05:49:52.275Z,72.82
2019-02-26T05:52:25.034Z,72.55
2019-02-26T05:54:57.104Z,72.70
2019-02-26T05:57:32.550Z,72.49
2019-02-26T06:00:01.982Z,72.62
2019-02-26T06:02:36.675Z,72.65
2019-02-26T06:05:11.659Z,72.52
2019-02-26T06:07:43.226Z,72.40
2019-02-26T06:10:14.743Z,72.54
2019-02-26T06:12:46.755Z,72.42
2019-02-26T06:15:20.419Z,72.48
2019-02-26T06:17:53.417Z,72.37
2019-02-26T06:20:28.062Z,72.29
2019-02-26T06:22:58.274Z,72.23
2019-02-26T06:25:30.062Z,72.30
2019-02-26T06:28:04.519Z,72.41
2019-02-26T06:30:34.874Z,72.15
2019-02-26T06:33:07.113Z,72.31
2019-02-26T06:35:41.145Z,72.46
2019-02-26T06:38:13.704Z,72.52
2019-02-26T06:40:47.089Z,72.72
2019-02-26T06:43:18.496Z,72.49
2019-02-26T06:45:50.240Z,72.45
2019-02-26T06:48:24.604Z,72.46
2019-02-26T06:50:57.582Z,72.59
2019-02-26T06:53:29.920Z,72.23
2019-02-26T06:56:02.192Z,72.04
2019-02-26T06:58:35.456Z,72.05
2019-02-26T07:01:09.633Z,72.27
2019-02-26T07:03:41.104Z,72.33
2019-02-26T07:06:12.693Z,72.01
2019-02-26T07:08:45.039Z,72.03
2019-02-26T07:11:17.664Z,72.03
2019-02-26T07:13:49.235Z,72.12
2019-02-26T07:16:21.202Z,71.84
2019-02-26T07:18:52.836Z,72.14
2019-02-26T07:21:24.798Z,71.98
2019-02-26T07:23:56.935Z,71.50
2019-02-26T07:26:29.564Z,71.56
2019-02-26T07:29:03.359Z,71.50
2019-02-26T07:31:35.510Z,71.34
2019-02-26T07:34:07.295Z,71.63
2019-02-26T07:36:41.018Z,71.60
2019-02-26T07:39:12.937Z,71.62
2019-02-26T07:41:47.102Z,71.49
2019-02-26T07:44:21.252Z,71.56
2019-02-26T07:46:52.341Z,71.17
2019-02-26T07:49:24.001Z,71.16
2019-02-26T07:51:57.773Z,71.08
2019-02-26T07:54:29.273Z,70.99
2019-02-26T07:57:02.671Z,70.83
2019-02-26T07:59:34.882Z,70.78
2019-02-26T08:02:08.841Z,70.83
2019-02-26T08:04:43.643Z,70.78
2019-02-26T08:07:15.347Z,70.35
2019-02-26T08:09:47.033Z,70.19
2019-02-26T08:12:18.655Z,69.84
2019-02-26T08:14:50.365Z,69.85
2019-02-26T08:17:21.958Z,70.02
2019-02-26T08:19:53.647Z,69.70
2019-02-26T08:22:27.015Z,69.27
2019-02-26T08:24:58.708Z,68.99
2019-02-26T08:27:30.859Z,69.15
2019-02-26T08:30:04.275Z,68.80
2019-02-26T08:32:36.089Z,68.74
2019-02-26T08:35:09.284Z,68.51
2019-02-26T08:37:40.950Z,67.74
2019-02-26T08:40:14.182Z,67.79
2019-02-26T08:42:45.810Z,67.17
2019-02-26T08:45:22.874Z,66.46
2019-02-26T08:47:53.729Z,66.55
2019-02-26T08:50:28.524Z,65.86
2019-02-26T08:52:59.166Z,65.82
2019-02-26T08:55:30.869Z,65.11
2019-02-26T08:58:02.658Z,65.32
2019-02-26T09:00:34.375Z,64.79
2019-02-26T09:03:08.277Z,64.22
2019-02-26T09:05:39.578Z,63.85
2019-02-26T09:08:14.018Z,64.05
2019-02-26T09:10:46.920Z,64.20
2019-02-26T09:13:19.221Z,63.57
2019-02-26T09:15:51.008Z,63.88
2019-02-26T09:18:24.729Z,64.18
2019-02-26T09:20:56.121Z,64.14
2019-02-26T09:23:28.809Z,63.70
2019-02-26T09:26:02.602Z,63.53
2019-02-26T09:28:34.826Z,63.28
2019-02-26T09:31:07.390Z,63.07
2019-02-26T09:33:40.927Z,63.42
2019-02-26T09:36:15.713Z,63.81
2019-02-26T09:38:46.889Z,63.38
2019-02-26T09:41:21.445Z,63.44
2019-02-26T09:43:53.286Z,63.89
2019-02-26T09:46:24.817Z,64.12
2019-02-26T09:48:57.916Z,63.98
2019-02-26T09:51:30.692Z,64.07
2019-02-26T09:54:02.995Z,64.12
2019-02-26T09:56:34.728Z,64.11
2019-02-26T09:59:07.124Z,64.01
2019-02-26T10:01:40.764Z,64.09
2019-02-26T10:04:12.806Z,64.53
2019-02-26T10:06:44.953Z,64.44
2019-02-26T10:09:18.908Z,64.43
2019-02-26T10:11:51.690Z,64.47
2019-02-26T10:14:23.405Z,64.50
2019-02-26T10:16:56.951Z,64.29
2019-02-26T10:19:28.464Z,64.14
2019-02-26T10:22:00.711Z,64.35
2019-02-26T10:24:35.290Z,64.56
2019-02-26T10:27:10.921Z,64.67
2019-02-26T10:29:44.824Z,64.48
2019-02-26T10:32:15.005Z,63.99
2019-02-26T10:34:46.550Z,64.21
2019-02-26T10:37:18.156Z,64.20
2019-02-26T10:39:52.022Z,63.92
2019-02-26T10:42:23.205Z,63.40
2019-02-26T10:44:54.826Z,62.39
2019-02-26T10:47:27.503Z,62.55
2019-02-26T10:49:59.895Z,62.43
2019-02-26T10:52:31.542Z,61.96
2019-02-26T10:55:03.172Z,61.65
2019-02-26T10:57:36.161Z,61.31
2019-02-26T11:00:19.287Z,61.28
2019-02-26T11:02:54.030Z,60.28
2019-02-26T11:05:26.404Z,60.60
2019-02-26T11:08:01.887Z,60.81
2019-02-26T11:10:32.087Z,60.09
2019-02-26T11:13:03.763Z,60.58
2019-02-26T11:15:36.100Z,60.32
2019-02-26T11:18:08.361Z,60.60
2019-02-26T11:20:41.190Z,60.38
2019-02-26T11:23:14.229Z,59.49
2019-02-26T11:25:46.139Z,59.44
2019-02-26T11:28:17.763Z,58.77
2019-02-26T11:30:51.714Z,59.82
2019-02-26T11:33:23.092Z,58.66
2019-02-26T11:35:54.698Z,59.24
2019-02-26T11:38:27.355Z,58.78
2019-02-26T11:40:58.905Z,58.99
2019-02-26T11:43:30.437Z,58.74
2019-02-26T11:46:03.870Z,57.16
2019-02-26T11:48:35.345Z,56.95
2019-02-26T11:51:06.954Z,57.61
2019-02-26T11:53:38.588Z,57.63
2019-02-26T11:56:10.115Z,57.58
2019-02-26T11:58:41.653Z,56.25
2019-02-26T12:01:13.311Z,55.54
2019-02-26T12:03:44.935Z,55.83
2019-02-26T12:06:17.077Z,55.77
2019-02-26T12:08:50.048Z,55.53
2019-02-26T12:11:23.297Z,55.83
2019-02-26T12:13:55.241Z,54.63
2019-02-26T12:16:28.478Z,55.57
2019-02-26T12:19:03.510Z,55.19
2019-02-26T12:21:36.923Z,54.85
2019-02-26T12:24:09.227Z,55.02
2019-02-26T12:26:42.355Z,55.62
2019-02-26T12:29:16.155Z,55.51
2019-02-26T12:31:47.837Z,55.55
2019-02-26T12:34:20.794Z,56.19
2019-02-26T12:36:53.713Z,55.56
2019-02-26T12:39:29.162Z,54.01
2019-02-26T12:41:59.292Z,53.92
2019-02-26T12:44:32.035Z,53.19
2019-02-26T12:47:04.280Z,53.48
2019-02-26T12:49:38.493Z,54.01
2019-02-26T12:52:09.196Z,53.95
2019-02-26T12:54:42.835Z,54.11
2019-02-26T12:57:18.411Z,53.61
2019-02-26T12:59:49.198Z,53.61
2019-02-26T13:02:24.610Z,53.00
2019-02-26T13:04:54.165Z,52.80
2019-02-26T13:07:25.993Z,51.83
2019-02-26T13:10:02.782Z,50.02
2019-02-26T13:12:32.225Z,49.75
2019-02-26T13:15:09.524Z,50.58
2019-02-26T13:17:38.856Z,50.76
2019-02-26T13:20:14.797Z,51.17
2019-02-26T13:22:46.386Z,50.67
2019-02-26T13:25:21.578Z,50.63
2019-02-26T13:27:51.315Z,49.68
2019-02-26T13:30:27.381Z,49.68
2019-02-26T13:33:00.880Z,50.06
2019-02-26T13:35:32.222Z,50.50
2019-02-26T13:38:05.596Z,50.13
2019-02-26T13:40:38.670Z,49.79
2019-02-26T13:43:10.349Z,47.00
2019-02-26T13:45:42.025Z,44.85
2019-02-26T13:48:13.862Z,43.83
2019-02-26T13:50:45.399Z,42.47
2019-02-26T13:53:17.000Z,40.94
2019-02-26T13:55:48.671Z,40.75
2019-02-26T13:58:20.337Z,41.04
2019-02-26T14:00:52.107Z,41.20
2019-02-26T14:03:24.456Z,41.52
2019-02-26T14:05:56.042Z,42.12
2019-02-26T14:08:27.651Z,42.02
2019-02-26T14:10:59.195Z,42.27
2019-02-26T14:13:30.801Z,41.79
2019-02-26T14:16:04.034Z,42.12
2019-02-26T14:18:35.691Z,40.69
2019-02-26T14:21:07.229Z,40.08
2019-02-26T14:23:38.840Z,39.68
2019-02-26T14:26:10.342Z,39.37
2019-02-26T14:28:42.014Z,39.72
2019-02-26T14:31:13.589Z,39.70
2019-02-26T14:33:45.131Z,39.83
2019-02-26T14:36:16.668Z,40.56
2019-02-26T14:38:48.329Z,39.83
2019-02-26T14:41:19.897Z,40.40
2019-02-26T14:43:51.499Z,40.72
2019-02-26T14:46:23.154Z,40.68
2019-02-26T14:48:54.704Z,41.42
2019-02-26T14:51:26.807Z,41.39
2019-02-26T14:53:58.478Z,41.45
2019-02-26T14:56:30.109Z,41.53
2019-02-26T14:59:01.626Z,41.58
2019-02-26T15:01:33.232Z,39.62
2019-02-26T15:04:05.310Z,40.40
2019-02-26T15:06:36.922Z,40.80
2019-02-26T15:09:08.449Z,41.00
2019-02-26T15:11:40.568Z,41.11
2019-02-26T15:14:12.191Z,41.26
2019-02-26T15:16:43.745Z,41.35
2019-02-26T15:19:15.265Z,40.56
2019-02-26T15:21:47.345Z,39.36
2019-02-26T15:24:19.447Z,39.73
2019-02-26T15:26:50.975Z,39.38
2019-02-26T15:29:22.566Z,39.58
2019-02-26T15:31:54.216Z,39.89
2019-02-26T15:34:25.873Z,40.11
2019-02-26T15:36:58.282Z,39.93
2019-02-26T15:39:30.177Z,40.35
2019-02-26T15:42:01.862Z,40.54
2019-02-26T15:44:33.654Z,40.35
2019-02-26T15:49:54.700Z,40.65
2019-02-26T15:52:46.020Z,40.48
2019-02-26T15:55:25.859Z,40.93
2019-02-26T15:57:57.737Z,40.87
2019-02-26T16:00:30.913Z,41.39
2019-02-26T16:03:02.478Z,41.37
2019-02-26T16:05:39.295Z,41.77
2019-02-26T16:08:11.026Z,41.68
2019-02-26T16:10:42.693Z,42.05
2019-02-26T16:13:15.297Z,42.55
2019-02-26T16:15:47.650Z,42.67
2019-02-26T16:18:19.479Z,42.94
2019-02-26T16:20:51.083Z,43.21
2019-02-26T16:23:22.684Z,43.74
2019-02-26T16:25:54.344Z,44.41
2019-02-26T16:28:27.264Z,46.48
2019-02-26T16:31:00.058Z,48.63
2019-02-26T16:33:31.740Z,52.33
2019-02-26T16:36:03.359Z,54.21
2019-02-26T16:38:35.343Z,56.48
2019-02-26T16:41:06.931Z,57.77
2019-02-26T16:43:38.476Z,58.35
2019-02-26T16:46:10.589Z,59.10
2019-02-26T16:48:42.181Z,59.64
2019-02-26T16:51:13.692Z,60.12
2019-02-26T16:53:45.334Z,60.45
2019-02-26T16:56:16.969Z,60.79
2019-02-26T16:58:48.549Z,61.11
2019-02-26T17:01:21.802Z,61.56
2019-02-26T17:03:53.936Z,61.81
2019-02-26T17:06:25.495Z,62.01
2019-02-26T17:08:57.174Z,62.08
2019-02-26T17:11:28.845Z,62.08
2019-02-26T17:14:01.077Z,62.20
2019-02-26T17:16:32.702Z,62.30
2019-02-26T17:19:04.365Z,62.57
2019-02-26T17:21:36.078Z,62.63
2019-02-26T17:24:07.649Z,62.82
2019-02-26T17:26:39.192Z,63.00
2019-02-26T17:29:11.426Z,63.00
2019-02-26T17:31:45.242Z,63.19
2019-02-26T17:34:17.703Z,63.55
2019-02-26T17:36:50.075Z,63.68
2019-02-26T17:39:23.702Z,63.72
2019-02-26T17:41:56.927Z,63.89
2019-02-26T17:44:28.227Z,64.05
2019-02-26T17:46:59.840Z,64.23
2019-02-26T17:49:33.658Z,64.35
2019-02-26T17:52:06.497Z,64.19
2019-02-26T17:54:39.594Z,64.26
2019-02-26T17:57:11.322Z,64.56
2019-02-26T17:59:43.228Z,64.39
2019-02-26T18:02:14.863Z,64.08
2019-02-26T18:04:46.625Z,64.26
2019-02-26T18:07:18.422Z,64.40
2019-02-26T18:09:50.640Z,64.56
2019-02-26T18:12:22.384Z,64.45
2019-02-26T18:14:56.088Z,64.18
2019-02-26T18:17:27.429Z,63.86
2019-02-26T18:19:58.971Z,63.63
2019-02-26T18:22:30.549Z,63.41
2019-02-26T18:25:02.146Z,63.43
2019-02-26T18:27:33.821Z,63.33
2019-02-26T18:30:12.557Z,63.36
2019-02-26T18:32:50.219Z,63.21
2019-02-26T18:35:17.557Z,63.30
2019-02-26T18:37:49.215Z,63.54
2019-02-26T18:40:20.982Z,63.77
2019-02-26T18:42:52.590Z,63.33
2019-02-26T18:45:31.633Z,63.29
2019-02-26T18:48:03.319Z,63.47
2019-02-26T18:50:34.996Z,63.55
2019-02-26T18:53:06.680Z,63.88
2019-02-26T18:55:38.283Z,64.46
2019-02-26T18:58:10.034Z,63.73
2019-02-26T19:00:41.996Z,63.80
2019-02-26T19:03:17.853Z,63.73
2019-02-26T19:05:53.789Z,63.59
2019-02-26T19:08:24.072Z,63.54
2019-02-26T19:10:55.736Z,63.51
2019-02-26T19:13:27.318Z,63.48
2019-02-26T19:15:58.847Z,63.61
2019-02-26T19:18:30.469Z,63.55
2019-02-26T19:21:02.711Z,63.79
2019-02-26T19:23:34.334Z,64.38
2019-02-26T19:26:06.109Z,64.41
2019-02-26T19:28:38.723Z,64.18
2019-02-26T19:31:10.535Z,64.42
2019-02-26T19:33:43.628Z,64.50
2019-02-26T19:36:15.867Z,64.33
2019-02-26T19:38:48.545Z,64.35
2019-02-26T19:41:20.228Z,64.23
2019-02-26T19:43:52.494Z,64.39
2019-02-26T19:46:27.928Z,64.83
2019-02-26T19:49:08.284Z,65.27
2019-02-26T19:51:41.067Z,65.69
2019-02-26T19:54:13.048Z,65.81
2019-02-26T19:56:45.385Z,66.10
2019-02-26T19:59:17.131Z,66.04
2019-02-26T20:01:48.824Z,66.29
2019-02-26T20:04:21.535Z,66.41
2019-02-26T20:06:54.187Z,66.28
2019-02-26T20:09:26.152Z,66.07
2019-02-26T20:12:00.049Z,66.21
2019-02-26T20:14:51.452Z,66.39
2019-02-26T20:17:24.387Z,66.33
2019-02-26T20:19:56.708Z,66.39
2019-02-26T20:22:30.601Z,66.11
2019-02-26T20:25:03.915Z,66.04
2019-02-26T20:27:36.958Z,66.00
2019-02-26T20:30:16.967Z,66.16
2019-02-26T20:32:50.015Z,66.36
2019-02-26T20:35:21.662Z,66.61
2019-02-26T20:37:53.272Z,66.85
2019-02-26T20:40:27.394Z,66.77
2019-02-26T20:43:01.852Z,67.27
2019-02-26T20:45:35.353Z,67.29
2019-02-26T20:48:13.613Z,67.34
2019-02-26T20:50:56.543Z,67.74
2019-02-26T20:53:33.414Z,67.97
2019-02-26T20:56:09.588Z,67.80
2019-02-26T20:58:44.670Z,67.94
2019-02-26T21:01:15.835Z,68.15
2019-02-26T21:03:47.557Z,68.21
2019-02-26T21:06:19.261Z,67.99
2019-02-26T21:08:50.895Z,68.24
2019-02-26T21:11:23.265Z,67.95
2019-02-26T21:13:54.924Z,68.05
2019-02-26T21:16:27.203Z,68.81
2019-02-26T21:19:02.689Z,68.87
2019-02-26T21:21:32.095Z,68.75
2019-02-26T21:24:03.656Z,68.73
2019-02-26T21:26:35.277Z,69.13
2019-02-26T21:29:06.855Z,68.82
2019-02-26T21:31:39.009Z,68.91
2019-02-26T21:34:10.623Z,68.33
2019-02-26T21:36:42.309Z,68.23
2019-02-26T21:39:13.872Z,68.39
2019-02-26T21:41:45.462Z,68.43
2019-02-26T21:44:17.142Z,68.53
2019-02-26T21:46:48.709Z,68.53
2019-02-26T21:49:21.777Z,68.38
2019-02-26T21:51:55.186Z,68.20
2019-02-26T21:54:26.873Z,67.78
2019-02-26T21:56:58.489Z,67.97
2019-02-26T21:59:32.564Z,68.01
2019-02-26T22:02:03.428Z,67.89
2019-02-26T22:04:35.095Z,67.30
2019-02-26T22:07:07.147Z,67.29
2019-02-26T22:09:38.916Z,67.23
2019-02-26T22:12:10.634Z,66.96
2019-02-26T22:14:42.641Z,66.51
2019-02-26T22:17:15.176Z,65.95
2019-02-26T22:19:46.701Z,65.63
2019-02-26T22:22:19.053Z,65.59
2019-02-26T22:24:53.065Z,65.34
2019-02-26T22:27:24.632Z,64.89
2019-02-26T22:29:56.233Z,64.41
2019-02-26T22:32:27.836Z,64.08
2019-02-26T22:34:59.682Z,63.75
2019-02-26T22:37:31.457Z,63.60
2019-02-26T22:40:03.168Z,63.51
2019-02-26T22:42:34.729Z,63.46
2019-02-26T22:45:09.964Z,63.41
2019-02-26T22:47:43.947Z,63.45
2019-02-26T22:50:17.353Z,63.50
2019-02-26T22:52:48.870Z,63.23
2019-02-26T22:55:20.464Z,62.74
2019-02-26T22:57:52.418Z,62.54
2019-02-26T23:00:50.254Z,62.76
2019-02-26T23:03:23.883Z,62.60
2019-02-26T23:05:58.789Z,62.43
2019-02-26T23:08:29.355Z,62.30
2019-02-26T23:11:00.980Z,62.55
2019-02-26T23:13:33.678Z,62.46
2019-02-26T23:16:05.780Z,62.20
2019-02-26T23:18:37.377Z,62.19
2019-02-26T23:21:10.039Z,61.86
2019-02-26T23:23:42.002Z,61.81
2019-02-26T23:26:13.705Z,61.75
2019-02-26T23:28:45.454Z,61.75
2019-02-26T23:31:17.927Z,61.63
2019-02-26T23:33:49.669Z,61.50
2019-02-26T23:36:21.771Z,61.46
2019-02-26T23:38:53.501Z,61.52
2019-02-26T23:41:25.098Z,61.39
2019-02-26T23:43:56.698Z,61.20
2019-02-26T23:46:29.805Z,61.40
2019-02-26T23:49:02.403Z,61.60
2019-02-26T23:51:33.974Z,61.63
2019-02-26T23:54:07.281Z,61.81
2019-02-26T23:56:38.800Z,61.94
2019-02-26T23:59:10.726Z,61.83
